createdAt,value
2023-01-23T00:01:31.663Z,67.54
2023-01-23T00:03:59.215Z,67.08
2023-01-23T00:06:27.179Z,66.62
2023-01-23T00:08:56.665Z,66.94
2023-01-23T00:11:30.181Z,66.18
2023-01-23T00:13:59.025Z,65.33
2023-01-23T00:16:28.931Z,65.48
2023-01-23T00:18:56.897Z,65.69
2023-01-23T00:21:26.851Z,66.01
2023-01-23T00:23:56.466Z,65.66
2023-01-23T00:26:26.781Z,65.26
2023-01-23T00:28:54.769Z,64.88
2023-01-23T00:31:28.560Z,64.43
2023-01-23T00:34:01.087Z,64.88
2023-01-23T00:36:46.862Z,65.48
2023-01-23T00:39:18.843Z,65.77
2023-01-23T00:41:47.946Z,65.70
2023-01-23T00:44:16.304Z,64.86
2023-01-23T00:46:44.093Z,65.45
2023-01-23T00:49:11.498Z,65.64
2023-01-23T00:51:38.898Z,65.34
2023-01-23T00:54:06.492Z,65.79
2023-01-23T00:56:33.840Z,65.66
2023-01-23T00:59:01.195Z,66.20
2023-01-23T01:01:31.414Z,65.85
2023-01-23T01:04:00.434Z,65.93
2023-01-23T01:06:29.802Z,66.93
2023-01-23T01:08:58.781Z,66.77
2023-01-23T01:11:26.437Z,66.55
2023-01-23T01:13:54.205Z,67.09
2023-01-23T01:16:21.645Z,66.32
2023-01-23T01:18:48.992Z,66.67
2023-01-23T01:21:17.142Z,66.53
2023-01-23T01:23:44.804Z,67.07
2023-01-23T01:26:12.845Z,67.55
2023-01-23T01:28:42.169Z,67.45
2023-01-23T01:31:15.211Z,66.90
2023-01-23T01:33:43.721Z,68.27
2023-01-23T01:36:16.943Z,68.38
2023-01-23T01:38:47.773Z,68.71
2023-01-23T01:41:16.296Z,68.28
2023-01-23T01:43:44.372Z,68.34
2023-01-23T01:46:19.560Z,68.44
2023-01-23T01:49:06.367Z,67.61
2023-01-23T01:51:52.510Z,67.42
2023-01-23T01:54:25.773Z,67.51
2023-01-23T01:57:09.432Z,67.59
2023-01-23T01:59:50.652Z,67.53
2023-01-23T02:02:23.861Z,67.62
2023-01-23T02:04:57.461Z,68.40
2023-01-23T02:07:47.242Z,68.48
2023-01-23T02:10:16.667Z,68.26
2023-01-23T02:12:49.161Z,68.38
2023-01-23T02:15:18.657Z,69.19
2023-01-23T02:17:48.168Z,69.10
2023-01-23T02:20:18.524Z,68.65
2023-01-23T02:23:14.509Z,68.84
2023-01-23T02:25:43.106Z,68.62
2023-01-23T02:28:13.198Z,68.61
2023-01-23T02:30:42.698Z,69.10
2023-01-23T02:33:19.486Z,69.12
2023-01-23T02:35:47.364Z,69.66
2023-01-23T02:38:18.137Z,69.99
2023-01-23T02:40:45.446Z,70.42
2023-01-23T02:43:21.434Z,70.43
2023-01-23T02:45:56.416Z,70.97
2023-01-23T02:48:24.972Z,71.05
2023-01-23T02:50:52.772Z,71.07
2023-01-23T02:53:20.117Z,71.43
2023-01-23T02:55:47.569Z,71.57
2023-01-23T02:58:33.653Z,71.28
2023-01-23T03:01:00.977Z,71.07
2023-01-23T03:03:30.651Z,71.30
2023-01-23T03:05:59.240Z,70.96
2023-01-23T03:08:33.460Z,69.89
2023-01-23T03:11:01.823Z,69.88
2023-01-23T03:13:29.859Z,68.77
2023-01-23T03:15:57.837Z,68.41
2023-01-23T03:18:30.910Z,67.65
2023-01-23T03:21:02.630Z,68.09
2023-01-23T03:23:30.280Z,68.33
2023-01-23T03:26:00.642Z,67.68
2023-01-23T03:29:08.603Z,66.00
2023-01-23T03:31:36.206Z,64.80
2023-01-23T03:34:03.711Z,64.60
2023-01-23T03:36:37.335Z,64.02
2023-01-23T03:39:27.374Z,64.53
2023-01-23T03:41:55.375Z,63.55
2023-01-23T03:44:24.695Z,63.64
2023-01-23T03:46:52.699Z,63.44
2023-01-23T03:49:20.783Z,63.20
2023-01-23T03:51:57.115Z,63.54
2023-01-23T03:54:24.527Z,63.45
2023-01-23T03:56:53.013Z,63.76
2023-01-23T03:59:46.362Z,63.79
2023-01-23T04:02:14.535Z,65.12
2023-01-23T04:04:41.853Z,66.23
2023-01-23T04:07:09.349Z,66.25
2023-01-23T04:09:38.920Z,66.12
2023-01-23T04:12:07.403Z,66.25
2023-01-23T04:14:38.775Z,66.74
2023-01-23T04:17:07.805Z,67.53
2023-01-23T04:19:35.730Z,67.67
2023-01-23T04:22:03.458Z,66.67
2023-01-23T04:24:35.677Z,66.24
2023-01-23T04:27:03.050Z,65.72
2023-01-23T04:29:30.422Z,65.50
2023-01-23T04:31:58.217Z,66.13
2023-01-23T04:34:25.630Z,65.12
2023-01-23T04:36:54.489Z,64.60
2023-01-23T04:39:21.772Z,63.84
2023-01-23T04:42:21.755Z,64.88
2023-01-23T04:44:58.068Z,63.68
2023-01-23T04:47:34.450Z,63.44
2023-01-23T04:50:05.329Z,62.97
2023-01-23T04:52:35.028Z,62.31
2023-01-23T04:55:03.983Z,60.83
2023-01-23T04:57:31.717Z,60.48
2023-01-23T05:00:10.745Z,60.19
2023-01-23T05:02:38.159Z,59.72
2023-01-23T05:05:06.655Z,58.92
2023-01-23T05:07:33.954Z,58.38
2023-01-23T05:10:10.894Z,58.65
2023-01-23T05:12:40.419Z,59.78
2023-01-23T05:15:10.014Z,62.61
2023-01-23T05:17:40.106Z,60.86
2023-01-23T05:20:08.437Z,62.19
2023-01-23T05:22:38.646Z,63.26
2023-01-23T05:25:06.540Z,65.08
2023-01-23T05:27:34.078Z,67.98
2023-01-23T05:30:01.442Z,70.00
2023-01-23T05:32:33.163Z,68.06
2023-01-23T05:35:09.957Z,69.84
2023-01-23T05:37:39.150Z,73.07
2023-01-23T05:40:13.911Z,72.11
2023-01-23T05:43:17.254Z,73.13
2023-01-23T05:46:06.776Z,74.63
2023-01-23T05:48:44.043Z,77.33
2023-01-23T05:51:12.264Z,77.74
2023-01-23T05:53:39.742Z,79.29
2023-01-23T05:56:08.091Z,79.19
2023-01-23T05:58:43.146Z,77.60
2023-01-23T06:01:37.158Z,76.40
2023-01-23T06:04:27.700Z,76.34
2023-01-23T06:07:27.176Z,76.79
2023-01-23T06:09:58.030Z,77.71
2023-01-23T06:12:25.681Z,78.42
2023-01-23T06:14:52.991Z,79.25
2023-01-23T06:17:20.501Z,79.58
2023-01-23T06:19:48.955Z,81.51
2023-01-23T06:22:16.874Z,84.11
2023-01-23T06:24:59.225Z,82.76
2023-01-23T06:27:26.775Z,81.80
2023-01-23T06:29:54.246Z,80.40
2023-01-23T06:32:23.565Z,81.09
2023-01-23T06:34:51.917Z,81.49
2023-01-23T06:37:19.341Z,82.27
2023-01-23T06:39:47.045Z,84.03
2023-01-23T06:42:16.238Z,84.32
2023-01-23T06:44:47.358Z,84.75
2023-01-23T06:47:16.685Z,84.89
2023-01-23T06:49:45.825Z,85.49
2023-01-23T06:52:13.243Z,86.14
2023-01-23T06:54:42.884Z,87.33
2023-01-23T06:57:10.678Z,89.00
2023-01-23T06:59:38.018Z,89.36
2023-01-23T07:02:11.042Z,88.65
2023-01-23T07:04:47.090Z,88.17
2023-01-23T07:07:14.467Z,87.28
2023-01-23T07:09:42.571Z,87.43
2023-01-23T07:12:15.605Z,86.43
2023-01-23T07:14:43.032Z,87.10
2023-01-23T07:17:12.379Z,86.14
2023-01-23T07:19:40.665Z,85.26
2023-01-23T07:22:11.864Z,85.47
2023-01-23T07:24:40.003Z,85.08
2023-01-23T07:27:07.291Z,85.53
2023-01-23T07:29:34.582Z,85.82
2023-01-23T07:32:02.163Z,85.56
2023-01-23T07:34:29.419Z,84.82
2023-01-23T07:36:56.791Z,85.03
2023-01-23T07:39:24.793Z,84.48
2023-01-23T07:41:52.174Z,84.00
2023-01-23T07:44:21.690Z,85.47
2023-01-23T07:46:49.311Z,84.36
2023-01-23T07:49:16.730Z,84.12
2023-01-23T07:51:43.999Z,83.38
2023-01-23T07:54:11.381Z,83.31
2023-01-23T07:56:38.875Z,85.15
2023-01-23T07:59:06.185Z,84.19
2023-01-23T08:01:33.477Z,84.23
2023-01-23T08:04:00.961Z,85.88
2023-01-23T08:06:28.305Z,86.07
2023-01-23T08:08:55.593Z,84.98
2023-01-23T08:11:24.049Z,85.18
2023-01-23T08:13:51.463Z,86.00
2023-01-23T08:16:18.920Z,86.10
2023-01-23T08:18:46.388Z,84.81
2023-01-23T08:21:13.780Z,84.72
2023-01-23T08:23:41.516Z,87.66
2023-01-23T08:26:11.461Z,88.92
2023-01-23T08:28:38.939Z,89.94
2023-01-23T08:31:08.550Z,90.47
2023-01-23T08:33:37.262Z,90.93
2023-01-23T08:36:06.365Z,91.95
2023-01-23T08:38:33.759Z,92.25
2023-01-23T08:41:03.015Z,91.45
2023-01-23T08:43:31.181Z,91.63
2023-01-23T08:45:59.748Z,91.80
2023-01-23T08:48:27.891Z,92.79
2023-01-23T08:51:00.796Z,92.78
2023-01-23T08:53:28.636Z,94.34
2023-01-23T08:56:03.855Z,94.21
2023-01-23T08:58:31.497Z,94.69
2023-01-23T09:00:59.124Z,95.94
2023-01-23T09:03:32.382Z,95.94
2023-01-23T09:06:02.594Z,96.71
2023-01-23T09:08:29.935Z,97.50
2023-01-23T09:11:06.133Z,98.11
2023-01-23T09:13:34.496Z,98.52
2023-01-23T09:16:02.179Z,100.00
2023-01-23T09:18:29.834Z,100.00
2023-01-23T09:20:57.498Z,100.00
2023-01-23T09:23:26.275Z,100.00
2023-01-23T09:25:53.622Z,100.00
2023-01-23T09:28:20.910Z,100.00
2023-01-23T09:30:48.426Z,100.00
2023-01-23T09:33:17.014Z,100.00
2023-01-23T09:35:45.537Z,100.00
2023-01-23T09:38:12.858Z,100.00
2023-01-23T09:40:50.572Z,100.00
2023-01-23T09:43:27.026Z,100.00
2023-01-23T09:46:05.734Z,100.00
2023-01-23T09:48:52.291Z,100.00
2023-01-23T09:51:26.841Z,100.00
2023-01-23T09:54:00.766Z,100.00
2023-01-23T09:56:33.628Z,100.00
2023-01-23T09:59:19.551Z,100.00
2023-01-23T10:01:46.974Z,100.00
2023-01-23T10:04:18.143Z,100.00
2023-01-23T10:07:07.484Z,100.00
2023-01-23T10:09:44.422Z,100.00
2023-01-23T10:12:24.342Z,100.00
2023-01-23T10:14:51.590Z,100.00
2023-01-23T10:17:36.913Z,100.00
2023-01-23T10:20:23.752Z,100.00
2023-01-23T10:23:24.962Z,100.00
2023-01-23T10:25:53.184Z,100.00
2023-01-23T10:28:35.177Z,100.00
2023-01-23T10:31:20.063Z,100.00
2023-01-23T10:34:07.329Z,100.00
2023-01-23T10:37:05.948Z,100.00
2023-01-23T10:39:47.619Z,100.00
2023-01-23T10:45:23.691Z,100.00
2023-01-23T10:47:55.147Z,100.00
2023-01-23T10:50:36.580Z,100.00
2023-01-23T10:53:16.138Z,100.00
2023-01-23T10:55:45.782Z,100.00
2023-01-23T10:58:32.054Z,100.00
2023-01-23T11:01:00.513Z,100.00
2023-01-23T11:03:33.863Z,100.00
2023-01-23T11:06:04.997Z,100.00
2023-01-23T11:08:37.599Z,100.00
2023-01-23T11:11:16.826Z,100.00
2023-01-23T11:13:47.520Z,100.00
2023-01-23T11:16:17.664Z,100.00
2023-01-23T11:18:54.245Z,98.67
2023-01-23T11:21:36.097Z,99.76
2023-01-23T11:24:27.741Z,100.00
2023-01-23T11:27:16.970Z,100.00
2023-01-23T11:29:56.359Z,100.00
2023-01-23T11:32:24.810Z,100.00
2023-01-23T11:35:03.410Z,100.00
2023-01-23T11:37:36.394Z,100.00
2023-01-23T11:40:07.188Z,100.00
2023-01-23T11:42:39.454Z,100.00
2023-01-23T11:45:35.688Z,100.00
2023-01-23T11:48:41.919Z,100.00
2023-01-23T11:51:21.404Z,100.00
2023-01-23T11:54:01.279Z,100.00
2023-01-23T11:56:56.012Z,97.61
2023-01-23T11:59:46.501Z,98.36
2023-01-23T12:02:30.713Z,92.30
2023-01-23T12:05:19.381Z,90.63
2023-01-23T12:08:25.745Z,89.96
2023-01-23T12:11:13.869Z,88.10
2023-01-23T12:14:19.627Z,87.19
2023-01-23T12:17:19.584Z,87.54
2023-01-23T12:20:02.078Z,86.35
2023-01-23T12:22:29.364Z,86.43
2023-01-23T12:25:26.001Z,86.29
2023-01-23T12:28:36.969Z,85.41
2023-01-23T12:31:34.833Z,84.47
2023-01-23T12:34:39.228Z,83.27
2023-01-23T12:37:30.301Z,84.04
2023-01-23T12:40:10.792Z,83.54
2023-01-23T12:43:04.767Z,82.98
2023-01-23T12:45:33.168Z,82.54
2023-01-23T12:48:19.626Z,82.17
2023-01-23T12:51:02.275Z,83.64
2023-01-23T12:53:34.405Z,81.58
2023-01-23T12:56:14.363Z,80.35
2023-01-23T12:58:48.790Z,80.40
2023-01-23T13:01:42.547Z,77.98
2023-01-23T13:04:42.041Z,76.12
2023-01-23T13:07:48.701Z,76.82
2023-01-23T13:10:51.618Z,75.74
2023-01-23T13:13:20.417Z,75.07
2023-01-23T13:16:10.805Z,75.31
2023-01-23T13:18:57.883Z,74.42
2023-01-23T13:21:58.152Z,73.51
2023-01-23T13:24:43.694Z,74.12
2023-01-23T13:27:40.409Z,75.39
2023-01-23T13:30:23.311Z,75.07
2023-01-23T13:32:52.532Z,74.32
2023-01-23T13:35:49.163Z,74.69
2023-01-23T13:38:22.703Z,73.77
2023-01-23T13:41:04.914Z,73.37
2023-01-23T13:44:04.511Z,73.49
2023-01-23T14:27:51.400Z,72.20
2023-01-23T14:30:27.406Z,70.89
2023-01-23T14:32:55.459Z,70.71
2023-01-23T14:35:31.869Z,70.34
2023-01-23T14:38:06.584Z,70.13
2023-01-23T14:40:49.041Z,70.59
2023-01-23T14:43:26.881Z,70.93
2023-01-23T14:46:03.632Z,70.77
2023-01-23T14:48:37.069Z,71.31
2023-01-23T14:51:09.284Z,71.94
2023-01-23T14:53:40.592Z,70.96
2023-01-23T14:56:11.188Z,71.90
2023-01-23T14:58:39.356Z,72.15
2023-01-23T15:01:06.986Z,72.76
2023-01-23T15:03:43.720Z,72.04
2023-01-23T15:06:19.555Z,72.84
2023-01-23T15:08:47.266Z,72.84
2023-01-23T15:11:15.073Z,72.51
2023-01-23T15:14:02.312Z,72.71
2023-01-23T15:16:36.090Z,72.11
2023-01-23T15:19:21.862Z,73.05
2023-01-23T15:21:49.857Z,73.36
2023-01-23T15:24:21.502Z,72.26
2023-01-23T15:27:03.657Z,72.49
2023-01-23T15:29:32.287Z,73.00
2023-01-23T15:32:01.020Z,72.23
2023-01-23T15:34:32.741Z,72.48
2023-01-23T15:37:00.057Z,71.16
2023-01-23T15:39:48.256Z,70.55
2023-01-23T15:42:15.492Z,71.73
2023-01-23T15:44:43.393Z,72.27
2023-01-23T15:47:10.985Z,72.91
2023-01-23T15:49:39.772Z,73.87
2023-01-23T15:52:27.014Z,74.51
2023-01-23T15:55:01.623Z,73.52
2023-01-23T15:57:29.131Z,73.53
2023-01-23T15:59:56.514Z,73.23
2023-01-23T16:02:31.204Z,73.24
2023-01-23T16:05:01.193Z,73.65
2023-01-23T16:07:37.128Z,73.37
2023-01-23T16:10:15.557Z,72.26
2023-01-23T16:12:42.843Z,71.28
2023-01-23T16:15:16.609Z,70.53
2023-01-23T16:17:44.500Z,69.37
2023-01-23T16:20:15.760Z,69.55
2023-01-23T16:22:44.701Z,69.78
2023-01-23T16:25:42.011Z,69.78
2023-01-23T16:28:15.375Z,70.27
2023-01-23T16:30:43.480Z,70.56
2023-01-23T16:33:10.847Z,70.30
2023-01-23T16:35:38.806Z,69.35
2023-01-23T16:38:06.622Z,68.32
2023-01-23T16:40:34.539Z,68.16
2023-01-23T16:43:04.991Z,68.83
2023-01-23T16:45:32.769Z,68.67
2023-01-23T16:48:00.731Z,68.94
2023-01-23T16:50:35.459Z,68.60
2023-01-23T16:53:08.165Z,68.43
2023-01-23T16:55:40.795Z,69.03
2023-01-23T16:58:20.007Z,69.21
2023-01-23T17:00:47.974Z,69.06
2023-01-23T17:03:24.739Z,68.55
2023-01-23T17:05:52.079Z,68.11
2023-01-23T17:08:21.833Z,67.81
2023-01-23T17:10:55.567Z,66.81
2023-01-23T17:13:23.521Z,67.11
2023-01-23T17:15:54.846Z,67.30
2023-01-23T17:18:25.563Z,67.52
2023-01-23T17:20:56.500Z,66.96
2023-01-23T17:23:24.575Z,67.20
2023-01-23T17:26:00.416Z,67.12
2023-01-23T17:28:29.159Z,67.19
2023-01-23T17:31:00.530Z,67.34
2023-01-23T17:33:31.697Z,67.86
2023-01-23T17:36:03.323Z,71.02
2023-01-23T17:38:36.876Z,73.36
2023-01-23T17:41:06.468Z,76.65
2023-01-23T17:43:33.764Z,76.63
2023-01-23T17:46:01.156Z,74.30
2023-01-23T17:48:31.621Z,75.41
2023-01-23T17:50:59.395Z,77.25
2023-01-23T17:53:27.912Z,75.89
2023-01-23T17:55:55.347Z,77.67
2023-01-23T17:58:23.525Z,75.56
2023-01-23T18:00:53.415Z,73.92
2023-01-23T18:03:21.988Z,73.57
2023-01-23T18:05:49.276Z,73.82
2023-01-23T18:08:19.320Z,72.59
2023-01-23T18:10:49.055Z,70.58
2023-01-23T18:13:25.257Z,69.66
2023-01-23T18:16:20.226Z,70.00
2023-01-23T18:18:58.773Z,69.55
2023-01-23T18:21:27.108Z,70.26
2023-01-23T18:23:54.908Z,67.20
2023-01-23T18:26:46.905Z,68.26
2023-01-23T18:29:52.033Z,68.98
2023-01-23T18:32:25.342Z,68.70
2023-01-23T18:34:58.537Z,68.17
2023-01-23T18:37:43.706Z,68.48
2023-01-23T18:40:36.361Z,68.51
2023-01-23T18:43:03.822Z,70.06
2023-01-23T18:45:31.992Z,71.04
2023-01-23T18:47:59.869Z,70.05
2023-01-23T18:50:27.628Z,68.07
2023-01-23T18:53:24.453Z,67.39
2023-01-23T18:56:14.212Z,67.37
2023-01-23T18:59:19.189Z,69.42
2023-01-23T19:02:09.655Z,67.81
2023-01-23T19:04:45.731Z,71.61
2023-01-23T19:07:18.627Z,74.83
2023-01-23T19:09:48.338Z,78.82
2023-01-23T19:12:25.613Z,79.37
2023-01-23T19:15:04.977Z,82.19
2023-01-23T19:17:36.831Z,83.25
2023-01-23T19:20:51.873Z,82.43
2023-01-23T19:23:37.189Z,80.31
2023-01-23T19:26:05.466Z,75.62
2023-01-23T19:28:32.912Z,75.08
2023-01-23T19:31:00.571Z,73.87
2023-01-23T19:33:28.109Z,71.98
2023-01-23T19:35:56.677Z,71.18
2023-01-23T19:38:24.014Z,70.73
2023-01-23T19:40:51.410Z,70.37
2023-01-23T19:43:28.836Z,71.11
2023-01-23T19:45:56.201Z,70.65
2023-01-23T19:48:23.647Z,69.66
2023-01-23T19:50:51.016Z,69.38
2023-01-23T19:53:19.336Z,69.15
2023-01-23T19:55:46.748Z,67.42
2023-01-23T19:58:14.131Z,67.07
2023-01-23T20:00:41.732Z,66.21
2023-01-23T20:03:14.555Z,67.23
2023-01-23T20:05:41.957Z,66.03
2023-01-23T20:08:10.201Z,65.21
2023-01-23T20:10:37.669Z,65.68
2023-01-23T20:13:05.370Z,65.90
2023-01-23T20:15:33.950Z,65.75
2023-01-23T20:18:01.348Z,65.95
2023-01-23T20:20:28.762Z,66.22
2023-01-23T20:23:14.712Z,65.55
2023-01-23T20:25:42.168Z,67.80
2023-01-23T20:28:11.213Z,69.74
2023-01-23T20:30:39.257Z,71.26
2023-01-23T20:33:07.929Z,71.03
2023-01-23T20:35:38.485Z,71.95
2023-01-23T20:38:05.911Z,72.92
2023-01-23T20:40:33.360Z,72.78
2023-01-23T20:43:00.933Z,71.83
2023-01-23T20:45:28.449Z,71.45
2023-01-23T20:47:58.494Z,72.28
2023-01-23T20:50:26.796Z,73.13
2023-01-23T20:53:12.469Z,73.16
2023-01-23T20:55:40.262Z,73.68
2023-01-23T20:58:26.299Z,73.87
2023-01-23T21:00:53.660Z,73.75
2023-01-23T21:03:21.153Z,72.55
2023-01-23T21:05:48.488Z,72.50
2023-01-23T21:08:15.953Z,72.91
2023-01-23T21:10:43.353Z,73.58
2023-01-23T21:13:12.191Z,73.09
2023-01-23T21:15:39.516Z,73.15
2023-01-23T21:18:06.863Z,73.49
2023-01-23T21:20:34.462Z,73.78
2023-01-23T21:23:01.763Z,73.05
2023-01-23T21:25:29.060Z,72.82
2023-01-23T21:27:56.330Z,72.67
2023-01-23T21:30:23.656Z,72.95
2023-01-23T21:32:51.299Z,73.08
2023-01-23T21:35:19.158Z,73.87
2023-01-23T21:37:46.841Z,74.29
2023-01-23T21:40:14.257Z,76.53
2023-01-23T21:42:41.628Z,81.21
2023-01-23T21:45:09.261Z,80.91
2023-01-23T21:47:36.577Z,82.96
2023-01-23T21:50:04.198Z,83.50
2023-01-23T21:52:31.890Z,82.54
2023-01-23T21:54:59.197Z,82.69
2023-01-23T21:57:26.656Z,83.13
2023-01-23T22:00:13.871Z,83.54
2023-01-23T22:02:41.269Z,85.45
2023-01-23T22:05:08.861Z,85.77
2023-01-23T22:07:36.224Z,82.70
2023-01-23T22:10:03.777Z,81.55
2023-01-23T22:12:31.132Z,82.64
2023-01-23T22:14:58.448Z,83.66
2023-01-23T22:17:25.825Z,84.34
2023-01-23T22:19:53.199Z,83.21
2023-01-23T22:22:20.818Z,82.52
2023-01-23T22:24:48.107Z,82.62
2023-01-23T22:27:15.682Z,81.86
2023-01-23T22:29:43.670Z,82.00
2023-01-23T22:32:11.082Z,80.45
2023-01-23T22:34:38.434Z,80.52
2023-01-23T22:37:05.788Z,80.23
2023-01-23T22:39:33.263Z,79.96
2023-01-23T22:42:02.726Z,80.16
2023-01-23T22:44:30.395Z,80.20
2023-01-23T22:46:57.765Z,80.84
2023-01-23T22:49:25.121Z,79.95
2023-01-23T22:51:52.500Z,80.77
2023-01-23T22:54:19.847Z,80.88
2023-01-23T22:56:47.213Z,81.23
2023-01-23T22:59:14.496Z,82.57
2023-01-23T23:01:41.859Z,85.03
2023-01-23T23:04:09.550Z,85.63
2023-01-23T23:06:37.000Z,85.97
2023-01-23T23:09:05.356Z,86.80
2023-01-23T23:11:32.915Z,88.21
2023-01-23T23:14:00.262Z,86.08
2023-01-23T23:16:31.630Z,85.61
2023-01-23T23:19:01.750Z,86.06
2023-01-23T23:21:33.069Z,86.41
2023-01-23T23:24:01.030Z,87.79
2023-01-23T23:26:31.301Z,87.64
2023-01-23T23:29:00.483Z,87.22
2023-01-23T23:31:28.419Z,88.47
2023-01-23T23:33:55.868Z,87.84
2023-01-23T23:36:23.323Z,89.15
2023-01-23T23:38:50.650Z,86.44
2023-01-23T23:41:19.032Z,86.82
2023-01-23T23:43:47.591Z,86.09
2023-01-23T23:46:17.977Z,84.11
2023-01-23T23:48:47.915Z,83.04
2023-01-23T23:51:17.273Z,78.87
2023-01-23T23:53:46.213Z,79.80
2023-01-23T23:56:27.627Z,79.07
2023-01-23T23:58:56.310Z,79.27
